Preview of NWS' New Version of Forecast
This preview is not operational and should not be used for support decisions.
Latest weather observations around

Wanoga Butte (HWY 372 MP 17) (ODT31)

Using English Units (Switch to International System of Units)
Date/ Time (PST) Wind (mph) Vis. (mi) Weather Sky Cond. Temp (°F) Rel. Humidity Wind Chill (°F) Heat Index (°F) Pressure Precip. (in)
Air Dwpt 6 hour Altimeter (inHg) Sea level (inHg) 1 hr 3 hr 6 hr
Max Min
Feb 21 14:00 NE 11   Clear   16 12     84% 4            
Feb 21 13:40 NE 7   Clear   17 12     81% 7            
Feb 21 13:30 NE 11   Clear   16 12     85% 3            
Feb 21 13:10 NE 8   Clear   17 11     79% 6            
Feb 21 13:00 NE 8   Clear   17 13     85% 6            
Feb 21 12:40 E 10   Clear   16 12     85% 4            
Feb 21 12:30 E 13   Clear   16 11     80% 2            
Feb 21 12:10 NE 10   Clear   16 12     82% 4            
Feb 21 12:00 NE 16   Clear   16 12     84% 0            
Feb 21 11:40 E 16   Clear   16 11     82% 0            
Feb 21 11:30 E 11   Clear   16 12     84% 3            
Feb 21 11:10 NE 12   Clear   15 12     87% 1            
Feb 21 11:00 NE 12   Clear   16 12     85% 2            
Feb 21 10:40 NE 15   Clear   14 12     89% -1            
Feb 21 10:30 NE 12   Clear   15 12     88% 1            
Feb 21 10:00 NE 14   Clear   15 13     89% 1            
Feb 21 09:40 NE 10   Clear   15 12     89% 2            
Feb 21 09:30 NE 12   Clear   14 11     90% 0            
Feb 21 09:10 NE 12   Clear   13 11     91% -1            
Feb 21 09:00 NE 11   Clear   13 11     91% 0            
Feb 21 08:40 NE 11   Clear   13 11     91% -1            
Feb 21 08:10 NE 13   Clear   12 10     91% -2            
Feb 21 08:00 NE 9   Clear   12 10     91% 0            
Feb 21 07:40 NE 10   Clear   12 10     91% -1            
Feb 21 07:10 NE 9   Clear   12 10     91% -1            
Feb 21 07:00 NE 11   Clear   11 9     91% -2            
Feb 21 06:40 NE 9   Clear   11 9     91% -1            
Feb 21 06:30 NE 10   Clear   11 9     91% -2            
Feb 21 06:10 NE 9   Clear   11 9     91% -1            
Feb 21 06:00 NE 11   Clear   11 9     91% -2            
Feb 21 05:30 E 10   Clear   11 9     91% -2            
Feb 21 05:10 NE 10   Clear   12 10     91% -1            
Feb 21 05:00 NE 14   Clear   12 10     91% -4            
Feb 21 04:40 NE 10   Clear   12 10     92% -1            
Feb 21 04:30 NE 8   Clear   12 10     92% 1            
Feb 21 04:10 NE 8   Clear   12 10     92% 1            
Feb 21 04:00 NE 9   Clear   12 10     92% 0            
Feb 21 03:30 NE 11   Clear   13 11     92% -1            
Feb 21 03:10 NE 12   Clear   13 11     92% -1            
Feb 21 03:00 NE 9   Clear   13 12     92% 2            
Feb 21 02:30 NE 11   Clear   13 11     92% 0            
Feb 21 02:10 NE 12   Clear   13 12     92% -1            
Feb 21 02:00 NE 10   Clear   13 11     92% 0            
Feb 21 01:40 NE 13   Clear   14 12     92% -1            
Feb 21 01:10 NE 12   Clear   14 12     93% 0            
Feb 21 01:00 NE 14   Clear   14 12     93% -1            
Feb 21 00:40 NE 12   Clear   15 13     93% 1            
Feb 21 00:30 NE 12   Clear   15 13     93% 1            
Feb 21 00:10 NE 12   Clear   15 14     93% 2            
Feb 20 23:40 NE 14   Clear   15 14     93% 1            
Feb 20 23:30 NE 12   Clear   16 14     93% 2            
Feb 20 23:10 NE 11   Clear   16 14     93% 3            
Feb 20 23:00 NE 8   Clear   16 14     93% 5            
Feb 20 22:40 NE 8   Clear   16 14     93% 5            
Feb 20 22:30 NE 10   Clear   16 14     93% 4            
Feb 20 22:10 NE 11   Clear   16 15     94% 3            
Feb 20 21:40 NE 7   Clear   16 15     93% 7            
Feb 20 21:30 NE 7   Clear   16 15     93% 7            
Feb 20 21:10 NE 6   Clear   16 15     93% 7            
Feb 20 21:00 NE 6   Clear   16 15     93% 8            
Feb 20 20:40 NE 6   Clear   16 15     93% 8            
Feb 20 20:30 NE 4   Clear   16 15     93% 10            
Feb 20 20:00 NE 6   Clear   17 15     94% 8            
Feb 20 19:40 NE 4   Clear   17 15     93% 10            
Feb 20 19:30 NE 5   Clear   16 14     92% 9            
Feb 20 19:10 NE 3   Clear   15 14     94%              
Feb 20 18:40 NE 3   Clear   17 16     96%              
Feb 20 18:30 E 5   Clear   17 16     98% 9            
Feb 20 18:10 NE 3   Clear   17 16     95%              
Feb 20 18:00 E 6   Clear   17 15     91% 9            
Feb 20 17:30 N 4   Clear   20 12     70% 14            
Feb 20 17:10 N 3   Clear   20 12     69%              
Feb 20 17:00 N 5   Clear   21 11     65% 14            
Feb 20 16:40 NW 6   Clear   22 13     67% 14            
Feb 20 16:10 NW 7   Clear   22 13     68% 14            
Feb 20 16:00 N 6   Clear   23 14     67% 15            
Feb 20 15:40 NW 7   Clear   23 14     67% 15            
Feb 20 15:30 NW 6   Clear   24 15     68% 17            
Feb 20 15:10 NW 7   Clear   24 14     67% 15            
Feb 20 15:00 W 3   Clear   25 17     69%              
Feb 20 14:40 N 6   Clear   23 15     69% 16            
Feb 20 14:10 W 8   Clear   24 16     70% 15            
Feb 20 14:00 W 5   Clear   25 16     69% 18            
Feb 20 13:50 N 7   Clear   23 14     70% 14            
Feb 20 13:20 NW 4   Clear   24 15     69% 19            
Feb 20 13:00 W 4   Clear   25 18     74% 20            
Feb 20 12:50 NW 9   Clear   23 16     74% 13            
Feb 20 12:30 W 12   Clear   24 14     67% 12            
Feb 20 12:20 NW 9   Clear   24 15     69% 15            
Feb 20 12:00 NW 9   Clear   22 16     76% 13            
Feb 20 11:30 NW 4   Clear   21 14     75% 15            
Feb 20 11:20 NW 5   Clear   21 14     75% 14            
Feb 20 11:00 W 7   Clear   20 15     78% 12            
Feb 20 10:50 W 11   Clear   20 14     77% 8            
Feb 20 10:30 W 10   Clear   20 14     79% 9            
Feb 20 10:20 NW 12   Clear   20 14     77% 8            
Feb 20 09:50 NW 12   Clear   20 14     76% 8            
Feb 20 09:40 NW 11   Clear   21 14     74% 9            
Feb 20 09:20 NW 9   Clear   19 14     80% 8            
Feb 20 09:10 N 8   Clear   19 14     80% 9            
Feb 20 08:50 NW 9   Clear   19 14     80% 8            
Feb 20 08:40 NW 8   Clear   19 13     79% 9            
Feb 20 08:10 W 4   Clear   18 12     79% 12            
Feb 20 07:50 W 12   Clear   18 12     77% 6            
Feb 20 07:40 NW 9   Clear   18 13     80% 7            
Feb 20 07:20 W 6   Clear   18 14     84% 9            
Feb 20 06:50 NW 10   Clear   18 14     87% 6            
Feb 20 06:40 NW 12   Clear   18 15     87% 5            
Feb 20 06:20     Clear   18 13     79%              
Feb 20 06:10 NW 11   Clear   18 15     86% 6            
Feb 20 05:50     Clear   18 15     89%              
Feb 20 05:20 NW 14   Clear   18 14     86% 4            
Feb 20 05:10 W 14   Clear   18 14     84% 4            
Feb 20 04:50     Clear   18 14     85%              
Feb 20 04:40 NW 16   Clear   18 14     85% 3            
Feb 20 04:20 NW 17   Clear   19 13     78% 4            
Feb 20 04:10 NW 12   Clear   19 13     77% 7            
Feb 20 03:50 NW 12   Clear   20 16     86% 8            
Feb 20 03:40 W 8   Clear   20 18     92% 10            
Feb 20 03:10 W 11   Clear   20 17     86% 9            
Feb 20 02:50 NW 12   Clear   20 18     88% 8            
Feb 20 02:40 NW 11   Clear   21 17     86% 9            
Feb 20 02:20 NW 12   Clear   20 19     92% 8            
Feb 20 02:10     Clear   21 17     86%              
Feb 20 01:50 NW 18   Clear   21 17     83% 7            
Feb 20 01:20 W 14   Clear   21 19     91% 8            
Feb 20 01:10 W 11   Clear   21 19     93% 9            
Feb 20 00:50     Clear   21 18     89%              
Feb 20 00:40     Clear   21 18     87%              
Feb 20 00:10 W 12   Clear   21 19     92% 9            
Feb 19 23:50 W 10   Clear   21 20     94% 10            
Feb 19 23:40 W 12   Clear   22 19     89% 10            
Feb 19 23:20 W 12   Clear   22 19     89% 10            
Feb 19 23:10 W 15   Clear   21 18     89% 8            
Feb 19 22:50 W 11   Clear   21 19     93% 10            
Feb 19 22:40 W 16   Clear   21 18     88% 8            
Feb 19 22:10 W 12   Clear   21 19     91% 9            
Feb 19 21:50 NW 12   Clear   21 19     90% 9            
Feb 19 21:40 NW 11   Clear   21 19     91% 10            
Feb 19 21:20 NW 4   Clear   21 18     89% 15            
Feb 19 21:10 SW 8   Clear   21 18     89% 11            
Feb 19 20:50 NW 10   Clear   21 18     88% 10            
Feb 19 20:40 E 7   Clear   21 18     91% 12            
Feb 19 20:20 W 11   Clear   21 18     88% 10            
Feb 19 19:50 W 13   Clear   21 18     88% 8            
Feb 19 19:40     Clear   21 18     88%              
Feb 19 19:20 NW 11   Clear   21 18     91% 9            
Feb 19 19:10 NW 8   Clear   21 19     92% 11            
Feb 19 18:50 W 7   Clear   21 18     91% 12            
Feb 19 18:40 NW 9   Clear   21 18     88% 11            
Feb 19 18:10 W 10   Clear   21 18     86% 10            
Feb 19 17:50 NW 10   Clear   21 18     90% 10            
Feb 19 17:40 W 9   Clear   21 18     90% 10            
Feb 19 17:20 W 12   Clear   21 18     90% 8            
Feb 19 16:50 NW 9   Clear   21 18     88% 11            
Feb 19 16:40 W 9   Clear   21 18     87% 11            
Feb 19 16:20 W 4   Clear   23 19     86% 18            
Feb 19 15:50 NW 10   Clear   22 18     83% 12            
Feb 19 15:40 W 11   Clear   23 19     83% 12            
Feb 19 15:20 W 13   Clear   24 17     74% 13            
Feb 19 15:10 SW 6   Clear   26 17     67% 20            
Feb 19 14:40     Clear   27 18     69%              
Feb 19 14:20 E 5   Clear   24 17     75% 18            
Feb 19 14:10 E 4   Clear   24 17     72% 19            
Feb 19 13:50 E 4   Clear   26 17     70% 21            
Feb 19 13:40 W 2   Clear   29 14     55%              
Feb 19 13:20 NW 6   Clear   27 14     56% 21            
Feb 19 12:50     Clear   26 16     66%              
Feb 19 12:40 NW 3   Clear   26 16     64%              
Feb 19 12:20     Clear   27 20     74%              
Feb 19 12:10 W 5   Clear   27 19     70% 21            
Feb 19 11:40 S 4   Clear   26 20     77% 21            
Feb 19 11:20 N 1   Clear   27 19     73%              
Feb 19 11:10     Clear   27 20     75%              
Feb 19 10:40 SW 2   Clear   28 21     74%              
Feb 19 10:20 W 1   Clear   29 20     70%              
Feb 19 10:10 E 1   Clear   29 19     66%              
Feb 19 09:50 SW 2   Clear   27 19     72%              
Feb 19 09:40 SW 6   Clear   26 18     72% 19            
Feb 19 09:10 NE 1   Clear   28 17     62%              
Feb 19 08:50 SW 1   Clear   24 16     70%              
Notice The following observation data may not be complete
Feb 19 08:40 NW 3   Clear     15      %              
Feb 19 08:20 NW 2   Clear   25 14     61%              
Feb 19 08:10 N 2   Clear   25 13     60%              
Feb 19 07:40 NW 4   Clear   24 12     62% 18            
Feb 19 07:20 NW 3   Clear   22 13     68%              
Feb 19 07:10 N 8   Clear   23 12     64% 14            
Feb 19 06:50 N 3   Clear   21 13     69%              
Feb 19 06:40 NE 3   Clear   19 12     72%              
Feb 19 06:20 W 2   Clear   17 10     75%              
Feb 19 05:50 SW 2   Clear   15 11     83%              
Feb 19 05:40 W 3   Clear   15 11     84%              
Feb 19 05:20     Clear   15 11     82%              
Feb 19 05:10     Clear   17 10     75%              
Feb 19 04:50     Clear   15 10     79%              
Feb 19 04:20 W 2   Clear   15 10     81%              
Feb 19 04:10     Clear   15 11     83%              
Feb 19 03:50     Clear   17 10     75%              
Feb 19 03:40     Clear   15 11     82%              
Feb 19 03:10 W 5   Clear   14 10     85% 6            
Feb 19 02:50 W 3   Clear   14 10     84%              
Feb 19 02:40 W 3   Clear   14 11     85%              
Feb 19 02:20 W 1   Clear   14 11     86%              
Feb 19 01:50     Clear   15 11     81%              
Feb 19 01:40     Clear   15 11     81%              
Feb 19 01:20     Clear   15 11     82%              
Feb 19 01:10 N 1   Clear   15 10     81%              
Feb 19 00:40 NE 2   Clear   14 10     84%              
Feb 19 00:20 NE 1   Clear   14 11     87%              
Feb 19 00:10 W 2   Clear   15 11     83%              
Feb 18 23:50 W 4   Clear   14 11     85% 8            
Feb 18 23:20 W 6   Clear   15 10     82% 6            
Feb 18 23:10 W 4   Clear   14 10     85% 7            
Feb 18 22:50 W 1   Clear   14 11     86%              
Feb 18 22:40 W 1   Clear   15 11     83%              
Feb 18 22:20 W 1   Clear   14 11     87%              
Feb 18 21:50 SW 1   Clear   15 11     85%              
Feb 18 21:40 W 3   Clear   14 11     87%              
Feb 18 21:20 W 2   Clear   14 11     86%              
Feb 18 21:10 W 2   Clear   14 9     80%              
Feb 18 20:50 N 2   Clear   16 10     78%              
Feb 18 20:20     Clear   15 11     81%              
Feb 18 20:10 N 3   Clear   16 11     79%              
Feb 18 19:50 N 3   Clear   16 10     79%              
Feb 18 19:20 N 3   Clear   16 11     78%              
Feb 18 19:10 NE 1   Clear   16 11     79%              
Feb 18 18:50     Clear   16 11     82%              
Feb 18 18:40 NE 1   Clear   16 12     82%              
Feb 18 18:20 NW 1   Clear   18 13     80%              
Feb 18 17:50 N 1   Clear   17 13     83%              
Feb 18 17:40 NW 4   Clear   18 13     81% 12            
Feb 18 17:20 W 5   Clear   19 14     79% 12            
Feb 18 16:50 W 8   Clear   21 15     75% 12            
Feb 18 16:40     Clear   24 13     62%              
Feb 18 16:20 W 1   Clear   26 16     66%              
Feb 18 16:10 NW 3   Clear   22 13     68%              
Feb 18 15:50 N 3   Clear   21 9     58%              
Feb 18 15:40 N 3   Clear   22 10     59%              
Feb 18 15:10 N 4   Clear   24 9     53% 19            
Feb 18 14:50 N 4   Clear   24 9     51% 19            
Feb 18 14:40 NW 4   Clear   25 9     50% 20            
Feb 18 14:20 N 7   Clear   24 9     51% 16            
Feb 18 14:10 N 6   Clear   25 10     53% 18            
May 15 09:50 E 3   Clear   60        %              
Notice The following observation data may not be complete
May 15 05:50 NE 1   Clear            %              
Notice The following observation data may not be complete
May 15 05:10 E 1   Clear            %              
Notice The following observation data may not be complete
May 15 04:20 N 1   Clear            %              
Notice The following observation data may not be complete
May 15 02:50     Clear            %              
May 14 21:50 NE 4   Clear   55        %              
May 14 16:10 E 3   Clear   64        %              
May 14 09:40 NE 6   Clear   57        %              
May 14 08:50 NE 5   Clear   55        %              
May 14 00:50 NE 7   Clear   51        %              
Notice The following observation data may not be complete
May 13 23:20     Clear            %              
May 13 22:20 NE 10   Clear   53        %              
May 13 19:20 E 12   Clear   58        %              
May 13 16:50 E 13   Clear   61        %              
May 13 12:10 E 14   Clear   57        %              
May 12 21:10 NE 10   Clear   49        % 45            
Notice The following observation data may not be complete
May 12 15:40     Clear            %              
May 12 08:20     Clear   43        %              
Notice The following observation data may not be complete
May 12 04:10     Clear            %              
May 12 02:10 NE 14   Clear   40        % 32            
May 12 01:20 NE 12   Clear   41        % 35            
Notice The following observation data may not be complete
May 11 23:50     Clear            %              
May 11 23:20 NE 14   Clear   41        % 34            
May 11 21:40 NE 9   Clear   41        % 36            
May 11 12:20 NE 14   Clear   41        % 34            
Jun 12 00:00 NE 3   Clear   40 32     73%              
Jun 11 21:10 N 8   Clear   40 33     74% 35            
Jun 11 20:00 N 8   Clear   42 32     69% 37            
Jun 11 13:30 NE 11   Clear   43 28     55% 37            
Jun 11 12:40 E 12   Clear   41 30     66% 34            
Jun 11 12:10 NE 16   Clear   41 30     66% 32            
Jun 11 00:10     Clear   31 29     91%              
Jun 10 22:40     Clear   31 29     93%              
Jun 10 03:00 W 8   Clear   31 30     96% 24            
Jun 09 16:10 W 11   Clear   37 32     83% 30            
Jun 09 07:30 W 11   Clear   36 29     76% 28            
Jun 09 01:30 W 12   Clear   35 31     86% 26            
Jun 09 01:00 W 11   Clear   35 31     87% 26            
Jun 08 17:20 W 13   Clear   42 37     83% 35            
Jun 08 13:30 W 17   Clear   42 39     89% 34            
Jun 08 09:10 W 8   Clear   42 42     100% 38            
Jun 07 20:30 W 9   Clear   58 45     62%              
Jun 07 11:50 SW 11   Clear   62 43     49%              
Jun 07 06:00 NE 3   Clear   57 36     45%              
Notice The following observation data may not be complete
Jun 06 03:50     Clear            %              
Jun 06 01:10 NE 4   Clear   51 27     38%              
Notice The following observation data may not be complete
Jun 06 00:20     Clear            %              
Jun 05 20:20 NE 9   Clear   55 24     30%              
Jun 05 18:20 E 8   Clear   60 24     25%              
Jun 05 18:10 NE 8   Clear   60 24     25%              
Jun 05 12:20 NE 2   Clear   59        %              
Jun 05 12:10 SE 3   Clear   57        %